createdAt,value
2022-10-05T00:00:02.682Z,99.99
2022-10-05T00:01:02.602Z,99.99
2022-10-05T00:02:02.585Z,99.99
2022-10-05T00:03:02.433Z,99.99
2022-10-05T00:04:02.373Z,99.99
2022-10-05T00:05:02.297Z,99.99
2022-10-05T00:06:02.187Z,99.99
2022-10-05T00:07:02.104Z,99.99
2022-10-05T00:08:02.031Z,99.99
2022-10-05T00:09:01.946Z,99.99
2022-10-05T00:10:01.858Z,99.99
2022-10-05T00:11:01.785Z,99.99
2022-10-05T00:12:01.700Z,99.99
2022-10-05T00:13:01.614Z,99.99
2022-10-05T00:14:01.536Z,99.99
2022-10-05T00:15:01.457Z,99.99
2022-10-05T00:16:01.438Z,99.99
2022-10-05T00:17:01.426Z,99.99
2022-10-05T00:18:01.207Z,99.99
2022-10-05T00:19:01.126Z,99.99
2022-10-05T00:20:01.040Z,99.99
2022-10-05T00:21:00.962Z,99.99
2022-10-05T00:22:00.880Z,99.99
2022-10-05T00:23:00.796Z,99.99
2022-10-05T00:24:00.722Z,99.99
2022-10-05T00:25:00.635Z,99.99
2022-10-05T00:26:00.551Z,99.99
2022-10-05T00:27:00.467Z,99.99
2022-10-05T00:28:00.451Z,99.99
2022-10-05T00:29:00.301Z,99.99
2022-10-05T00:30:00.222Z,99.99
2022-10-05T00:31:00.143Z,99.99
2022-10-05T00:32:00.163Z,99.99
2022-10-05T00:33:00.184Z,99.99
2022-10-05T00:33:59.898Z,99.99
2022-10-05T00:34:59.813Z,99.99
2022-10-05T00:35:59.739Z,99.99
2022-10-05T00:36:59.647Z,99.99
2022-10-05T00:37:59.568Z,99.99
2022-10-05T00:38:59.486Z,99.99
2022-10-05T00:39:59.405Z,99.99
2022-10-05T00:40:59.323Z,99.99
2022-10-05T00:41:59.241Z,99.99
2022-10-05T00:42:59.161Z,99.99
2022-10-05T00:43:59.075Z,99.99
2022-10-05T00:44:59.024Z,99.99
2022-10-05T00:45:59.001Z,99.99
2022-10-05T00:46:58.828Z,99.99
2022-10-05T00:47:58.752Z,99.99
2022-10-05T00:48:58.673Z,99.99
2022-10-05T00:49:58.583Z,99.99
2022-10-05T00:50:58.502Z,99.99
2022-10-05T00:51:58.424Z,99.99
2022-10-05T00:52:58.340Z,99.99
2022-10-05T00:53:58.254Z,99.99
2022-10-05T00:54:58.177Z,99.99
2022-10-05T00:55:58.089Z,99.99
2022-10-05T00:56:58.011Z,99.99
2022-10-05T00:57:57.933Z,99.99
2022-10-05T00:58:57.847Z,99.99
2022-10-05T00:59:57.762Z,99.99
2022-10-05T01:00:57.742Z,99.99
2022-10-05T01:01:57.649Z,99.99
2022-10-05T01:02:57.519Z,99.99
2022-10-05T01:03:57.437Z,99.99
2022-10-05T01:04:57.357Z,99.99
2022-10-05T01:05:57.276Z,99.99
2022-10-05T01:06:57.191Z,99.99
2022-10-05T01:07:57.109Z,99.99
2022-10-05T01:08:57.027Z,99.99
2022-10-05T01:09:56.948Z,99.99
2022-10-05T01:10:56.873Z,99.99
2022-10-05T01:11:56.783Z,99.99
2022-10-05T01:12:56.703Z,99.99
2022-10-05T01:13:56.621Z,99.99
2022-10-05T01:14:56.537Z,99.99
2022-10-05T01:15:56.453Z,99.99
2022-10-05T01:16:56.436Z,99.99
2022-10-05T01:17:56.297Z,99.99
2022-10-05T01:18:56.214Z,99.99
2022-10-05T01:19:56.130Z,99.99
2022-10-05T01:20:56.050Z,99.99
2022-10-05T01:21:55.965Z,99.99
2022-10-05T01:22:55.895Z,99.99
2022-10-05T01:23:55.807Z,99.99
2022-10-05T01:24:55.724Z,99.99
2022-10-05T01:25:55.642Z,99.99
2022-10-05T01:26:55.563Z,99.99
2022-10-05T01:27:55.546Z,99.99
2022-10-05T01:28:55.396Z,99.99
2022-10-05T01:29:55.316Z,99.99
2022-10-05T01:30:55.231Z,99.99
2022-10-05T01:31:55.189Z,99.99
2022-10-05T01:32:55.066Z,99.99
2022-10-05T01:33:54.988Z,99.99
2022-10-05T01:34:54.907Z,99.99
2022-10-05T01:35:54.820Z,99.99
2022-10-05T01:36:54.741Z,99.99
2022-10-05T01:37:54.662Z,99.99
2022-10-05T01:38:54.579Z,99.99
2022-10-05T01:39:54.495Z,99.99
2022-10-05T01:40:54.416Z,99.99
2022-10-05T01:41:54.330Z,99.99
2022-10-05T01:42:54.250Z,99.99
2022-10-05T01:43:54.167Z,99.99
2022-10-05T01:44:54.092Z,99.99
2022-10-05T01:45:54.085Z,99.99
2022-10-05T01:46:53.926Z,99.99
2022-10-05T01:47:53.842Z,99.99
2022-10-05T01:48:53.762Z,99.99
2022-10-05T01:49:53.681Z,99.99
2022-10-05T01:50:53.596Z,99.99
2022-10-05T01:51:53.512Z,99.99
2022-10-05T01:52:53.496Z,99.99
2022-10-05T01:53:53.351Z,99.99
2022-10-05T01:54:53.270Z,99.99
2022-10-05T01:55:53.188Z,99.99
2022-10-05T01:56:53.109Z,99.99
2022-10-05T01:57:53.026Z,99.99
2022-10-05T01:58:52.944Z,99.99
2022-10-05T01:59:52.860Z,99.99
2022-10-05T02:00:52.815Z,99.99
2022-10-05T02:01:52.791Z,99.99
2022-10-05T02:02:52.625Z,99.99
2022-10-05T02:03:52.533Z,99.99
2022-10-05T02:05:07.736Z,99.99
2022-10-05T02:05:52.370Z,99.99
2022-10-05T02:06:52.296Z,99.99
2022-10-05T02:07:52.211Z,99.99
2022-10-05T02:08:52.137Z,99.99
2022-10-05T02:09:52.045Z,99.99
2022-10-05T02:10:51.965Z,99.99
2022-10-05T02:11:51.881Z,99.99
2022-10-05T02:12:51.800Z,99.99
2022-10-05T02:13:51.719Z,99.99
2022-10-05T02:14:51.639Z,99.99
2022-10-05T02:15:51.603Z,99.99
2022-10-05T02:16:51.477Z,99.99
2022-10-05T02:17:51.391Z,99.99
2022-10-05T02:18:51.310Z,99.99
2022-10-05T02:19:51.228Z,99.99
2022-10-05T02:20:51.154Z,99.99
2022-10-05T02:21:51.065Z,99.99
2022-10-05T02:22:50.984Z,99.99
2022-10-05T02:23:50.898Z,99.99
2022-10-05T02:24:50.873Z,99.99
2022-10-05T02:25:50.741Z,99.99
2022-10-05T02:26:50.658Z,99.99
2022-10-05T02:27:50.578Z,99.99
2022-10-05T02:28:50.493Z,99.99
2022-10-05T02:29:50.411Z,99.99
2022-10-05T02:30:50.339Z,99.99
2022-10-05T02:31:50.334Z,99.99
2022-10-05T02:32:50.175Z,99.99
2022-10-05T02:33:50.084Z,99.99
2022-10-05T02:34:50.003Z,99.99
2022-10-05T02:35:49.919Z,99.99
2022-10-05T02:36:49.854Z,99.99
2022-10-05T02:37:49.757Z,99.99
2022-10-05T02:38:49.678Z,99.99
2022-10-05T02:39:49.594Z,99.99
2022-10-05T02:40:49.568Z,99.99
2022-10-05T02:41:49.433Z,99.99
2022-10-05T02:42:49.350Z,99.99
2022-10-05T02:43:49.267Z,99.99
2022-10-05T02:44:49.184Z,99.99
2022-10-05T02:45:49.154Z,99.99
2022-10-05T02:46:53.071Z,99.99
2022-10-05T02:47:48.939Z,99.99
2022-10-05T02:48:48.862Z,99.99
2022-10-05T02:49:48.779Z,99.99
2022-10-05T02:50:48.695Z,99.99
2022-10-05T02:51:48.613Z,99.99
2022-10-05T02:52:48.527Z,99.99
2022-10-05T02:53:48.445Z,99.99
2022-10-05T02:54:48.393Z,99.99
2022-10-05T02:55:48.285Z,99.99
2022-10-05T02:56:48.744Z,99.99
2022-10-05T02:57:48.118Z,99.99
2022-10-05T02:58:48.041Z,99.99
2022-10-05T02:59:47.953Z,99.99
2022-10-05T03:00:47.932Z,99.99
2022-10-05T03:01:47.831Z,99.99
2022-10-05T03:02:47.716Z,99.99
2022-10-05T03:03:47.627Z,99.99
2022-10-05T03:04:47.547Z,99.99
2022-10-05T03:05:47.461Z,99.99
2022-10-05T03:06:47.750Z,99.99
2022-10-05T03:07:47.300Z,99.99
2022-10-05T03:08:47.218Z,99.99
2022-10-05T03:09:47.134Z,99.99
2022-10-05T03:10:47.055Z,99.99
2022-10-05T03:11:46.971Z,99.99
2022-10-05T03:12:46.894Z,99.99
2022-10-05T03:13:46.810Z,99.99
2022-10-05T03:14:46.728Z,99.99
2022-10-05T03:15:46.687Z,99.99
2022-10-05T03:16:46.836Z,99.99
2022-10-05T03:17:46.483Z,99.99
2022-10-05T03:18:46.401Z,99.99
2022-10-05T03:19:46.315Z,99.99
2022-10-05T03:20:46.236Z,99.99
2022-10-05T03:21:46.157Z,99.99
2022-10-05T03:22:46.071Z,99.99
2022-10-05T03:23:45.988Z,99.99
2022-10-05T03:24:45.912Z,99.99
2022-10-05T03:25:45.827Z,99.99
2022-10-05T03:26:46.030Z,99.99
2022-10-05T03:27:45.662Z,99.99
2022-10-05T03:28:45.580Z,99.99
2022-10-05T03:29:45.493Z,99.99
2022-10-05T03:30:45.420Z,99.99
2022-10-05T03:31:45.335Z,99.99
2022-10-05T03:32:45.253Z,99.99
2022-10-05T03:33:45.167Z,99.99
2022-10-05T03:34:45.089Z,99.99
2022-10-05T03:35:45.011Z,99.99
2022-10-05T03:36:45.107Z,99.99
2022-10-05T03:37:44.839Z,99.99
2022-10-05T03:38:44.775Z,99.99
2022-10-05T03:39:44.677Z,99.99
2022-10-05T03:40:44.597Z,99.99
2022-10-05T03:41:44.516Z,99.99
2022-10-05T03:42:44.446Z,99.99
2022-10-05T03:43:44.349Z,99.99
2022-10-05T03:44:44.273Z,99.99
2022-10-05T03:45:44.183Z,99.99
2022-10-05T03:46:44.481Z,99.99
2022-10-05T03:47:44.023Z,99.99
2022-10-05T03:48:43.942Z,99.99
2022-10-05T03:49:43.856Z,99.99
2022-10-05T03:50:43.779Z,99.99
2022-10-05T03:51:43.692Z,99.99
2022-10-05T03:52:43.614Z,99.99
2022-10-05T03:53:43.531Z,99.99
2022-10-05T03:54:43.453Z,99.99
2022-10-05T03:55:43.371Z,99.99
2022-10-05T03:56:43.400Z,99.99
2022-10-05T03:57:43.202Z,99.99
2022-10-05T03:58:43.124Z,99.99
2022-10-05T03:59:43.042Z,99.99
2022-10-05T04:00:42.961Z,99.99
2022-10-05T04:01:42.984Z,99.99
2022-10-05T04:02:42.831Z,99.99
2022-10-05T04:03:42.713Z,99.99
2022-10-05T04:04:42.630Z,99.99
2022-10-05T04:05:42.552Z,99.99
2022-10-05T04:06:42.466Z,99.99
2022-10-05T04:07:42.385Z,99.99
2022-10-05T04:08:47.473Z,99.99
2022-10-05T04:09:42.224Z,99.99
2022-10-05T04:10:42.138Z,99.99
2022-10-05T04:11:42.056Z,99.99
2022-10-05T04:12:41.975Z,99.99
2022-10-05T04:13:41.891Z,99.99
2022-10-05T04:14:41.810Z,99.99
2022-10-05T04:15:41.755Z,99.99
2022-10-05T04:16:41.653Z,99.99
2022-10-05T04:17:41.570Z,99.99
2022-10-05T04:18:41.481Z,99.99
2022-10-05T04:19:41.418Z,99.99
2022-10-05T04:20:41.322Z,99.99
2022-10-05T04:21:41.237Z,99.99
2022-10-05T04:22:41.156Z,99.99
2022-10-05T04:23:41.073Z,99.99
2022-10-05T04:24:40.994Z,99.99
2022-10-05T04:25:40.914Z,99.99
2022-10-05T04:26:40.832Z,99.99
2022-10-05T04:27:40.749Z,99.99
2022-10-05T04:28:40.702Z,99.99
2022-10-05T04:29:40.583Z,99.99
2022-10-05T04:30:40.507Z,99.99
2022-10-05T04:31:40.466Z,99.99
2022-10-05T04:32:40.339Z,99.99
2022-10-05T04:33:40.255Z,99.99
2022-10-05T04:34:40.175Z,99.99
2022-10-05T04:35:40.088Z,99.99
2022-10-05T04:36:40.008Z,99.99
2022-10-05T04:37:43.223Z,99.99
2022-10-05T04:38:39.847Z,99.99
2022-10-05T04:39:39.764Z,99.99
2022-10-05T04:40:39.682Z,99.99
2022-10-05T04:41:39.597Z,99.99
2022-10-05T04:42:39.517Z,99.99
2022-10-05T04:43:39.433Z,99.99
2022-10-05T04:44:39.353Z,99.99
2022-10-05T04:45:39.276Z,99.99
2022-10-05T04:46:39.274Z,99.99
2022-10-05T04:47:39.108Z,99.99
2022-10-05T04:48:39.025Z,99.99
2022-10-05T04:49:38.942Z,99.99
2022-10-05T04:50:38.859Z,99.99
2022-10-05T04:51:38.784Z,99.99
2022-10-05T04:52:38.697Z,99.99
2022-10-05T04:53:38.616Z,99.99
2022-10-05T04:54:38.534Z,99.99
2022-10-05T04:55:38.448Z,99.99
2022-10-05T04:56:38.368Z,99.99
2022-10-05T04:57:38.288Z,99.99
2022-10-05T04:58:42.272Z,99.99
2022-10-05T04:59:38.118Z,99.99
2022-10-05T05:00:38.065Z,99.99
2022-10-05T05:01:37.960Z,99.99
2022-10-05T05:02:37.881Z,99.99
2022-10-05T05:03:37.818Z,99.99
2022-10-05T05:04:37.714Z,99.99
2022-10-05T05:05:53.034Z,99.99
2022-10-05T05:06:37.551Z,99.99
2022-10-05T05:07:37.461Z,99.99
2022-10-05T05:08:37.397Z,99.99
2022-10-05T05:09:37.307Z,99.99
2022-10-05T05:10:37.219Z,99.99
2022-10-05T05:11:37.137Z,99.99
2022-10-05T05:12:37.056Z,99.99
2022-10-05T05:13:36.993Z,99.99
2022-10-05T05:14:36.895Z,99.99
2022-10-05T05:15:36.814Z,99.99
2022-10-05T05:16:36.764Z,99.99
2022-10-05T05:17:36.664Z,99.99
2022-10-05T05:18:36.642Z,99.99
2022-10-05T05:19:36.482Z,99.99
2022-10-05T05:20:36.408Z,99.99
2022-10-05T05:21:36.324Z,99.99
2022-10-05T05:22:36.236Z,99.99
2022-10-05T05:23:36.153Z,99.99
2022-10-05T05:24:36.071Z,99.99
2022-10-05T05:25:35.994Z,99.99
2022-10-05T05:26:39.018Z,99.99
2022-10-05T05:27:35.828Z,99.99
2022-10-05T05:28:35.876Z,99.99
2022-10-05T05:29:35.665Z,99.99
2022-10-05T05:30:35.579Z,99.99
2022-10-05T05:31:35.579Z,99.99
2022-10-05T05:32:35.413Z,99.99
2022-10-05T05:33:35.332Z,99.99
2022-10-05T05:34:35.250Z,99.99
2022-10-05T05:35:35.168Z,99.99
2022-10-05T05:36:35.087Z,99.99
2022-10-05T05:37:35.003Z,99.99
2022-10-05T05:38:34.929Z,99.99
2022-10-05T05:39:34.840Z,99.99
2022-10-05T05:40:34.759Z,99.99
2022-10-05T05:41:34.681Z,99.99
2022-10-05T05:42:34.603Z,99.99
2022-10-05T05:43:34.509Z,99.99
2022-10-05T05:44:38.540Z,99.99
2022-10-05T05:45:34.349Z,99.99
2022-10-05T05:47:01.640Z,99.99
2022-10-05T05:47:34.250Z,99.99
2022-10-05T05:48:34.105Z,99.99
2022-10-05T05:49:34.021Z,99.99
2022-10-05T05:50:33.936Z,99.99
2022-10-05T05:51:33.854Z,99.99
2022-10-05T05:52:33.773Z,99.99
2022-10-05T05:53:33.692Z,99.99
2022-10-05T05:54:33.610Z,99.99
2022-10-05T05:55:33.526Z,99.99
2022-10-05T05:56:33.444Z,99.99
2022-10-05T05:57:33.364Z,99.99
2022-10-05T05:58:33.277Z,99.99
2022-10-05T05:59:33.196Z,99.99
2022-10-05T06:00:33.118Z,99.99
2022-10-05T06:01:34.037Z,99.99
2022-10-05T06:02:33.115Z,99.99
2022-10-05T06:03:32.908Z,99.99
2022-10-05T06:04:32.783Z,99.99
2022-10-05T06:05:32.701Z,99.99
2022-10-05T06:06:32.625Z,99.99
2022-10-05T06:07:32.597Z,99.99
2022-10-05T06:08:32.473Z,99.99
2022-10-05T06:09:32.374Z,99.99
2022-10-05T06:10:32.291Z,99.99
2022-10-05T06:11:32.211Z,99.99
2022-10-05T06:12:32.131Z,99.99
2022-10-05T06:13:32.051Z,99.99
2022-10-05T06:14:31.964Z,99.99
2022-10-05T06:15:31.889Z,99.99
2022-10-05T06:16:31.900Z,99.99
2022-10-05T06:17:31.720Z,99.99
2022-10-05T06:18:31.655Z,99.99
2022-10-05T06:19:31.553Z,99.99
2022-10-05T06:20:31.474Z,99.99
2022-10-05T06:21:31.404Z,99.99
2022-10-05T06:22:31.303Z,99.99
2022-10-05T06:23:31.222Z,99.99
2022-10-05T06:24:31.144Z,99.99
2022-10-05T06:25:31.061Z,99.99
2022-10-05T06:26:30.982Z,99.99
2022-10-05T06:27:30.897Z,99.99
2022-10-05T06:28:30.873Z,99.99
2022-10-05T06:29:30.737Z,99.99
2022-10-05T06:30:30.648Z,99.99
2022-10-05T06:31:30.597Z,99.99
2022-10-05T06:32:30.481Z,99.99
2022-10-05T06:33:30.398Z,99.99
2022-10-05T06:34:30.320Z,99.99
2022-10-05T06:35:30.236Z,99.99
2022-10-05T06:36:30.149Z,99.99
2022-10-05T06:37:30.072Z,99.99
2022-10-05T06:38:29.988Z,99.99
2022-10-05T06:39:29.905Z,99.99
2022-10-05T06:40:29.873Z,99.99
2022-10-05T06:41:29.740Z,99.99
2022-10-05T06:42:29.658Z,99.99
2022-10-05T06:43:29.579Z,99.99
2022-10-05T06:44:29.494Z,99.99
2022-10-05T06:45:29.462Z,99.99
2022-10-05T06:46:29.330Z,99.99
2022-10-05T06:47:29.249Z,99.99
2022-10-05T06:48:29.164Z,99.99
2022-10-05T06:49:29.086Z,99.99
2022-10-05T06:50:29.000Z,99.99
2022-10-05T06:51:29.030Z,99.99
2022-10-05T06:52:28.836Z,99.99
2022-10-05T06:53:28.756Z,99.99
2022-10-05T06:54:28.674Z,99.99
2022-10-05T06:55:28.595Z,99.99
2022-10-05T06:56:28.507Z,99.99
2022-10-05T06:57:28.428Z,99.99
2022-10-05T06:58:28.347Z,99.99
2022-10-05T06:59:28.266Z,99.99
2022-10-05T07:00:28.179Z,99.99
2022-10-05T07:01:28.161Z,99.99
2022-10-05T07:02:28.073Z,99.99
2022-10-05T07:03:27.936Z,99.99
2022-10-05T07:04:27.850Z,99.99
2022-10-05T07:05:27.772Z,99.99
2022-10-05T07:06:27.691Z,99.99
2022-10-05T07:07:27.611Z,99.99
2022-10-05T07:08:27.529Z,99.99
2022-10-05T07:09:27.452Z,99.99
2022-10-05T07:10:27.362Z,99.99
2022-10-05T07:11:27.281Z,99.99
2022-10-05T07:12:27.208Z,99.99
2022-10-05T07:13:27.116Z,99.99
2022-10-05T07:14:27.034Z,99.99
2022-10-05T07:15:26.957Z,99.99
2022-10-05T07:16:26.932Z,99.99
2022-10-05T07:17:26.798Z,99.99
2022-10-05T07:18:26.710Z,99.99
2022-10-05T07:19:26.635Z,99.99
2022-10-05T07:20:26.547Z,99.99
2022-10-05T07:21:26.472Z,99.99
2022-10-05T07:22:28.306Z,99.99
2022-10-05T07:23:26.306Z,99.99
2022-10-05T07:24:26.228Z,99.99
2022-10-05T07:25:26.145Z,99.99
2022-10-05T07:26:26.058Z,99.99
2022-10-05T07:27:25.977Z,99.99
2022-10-05T07:28:26.144Z,99.99
2022-10-05T07:29:25.823Z,99.99
2022-10-05T07:30:25.739Z,99.99
2022-10-05T07:31:25.680Z,99.99
2022-10-05T07:32:25.573Z,99.99
2022-10-05T07:33:25.496Z,99.99
2022-10-05T07:34:25.416Z,99.99
2022-10-05T07:35:25.333Z,99.99
2022-10-05T07:36:25.249Z,99.99
2022-10-05T07:37:25.170Z,99.99
2022-10-05T07:38:25.093Z,99.99
2022-10-05T07:39:36.722Z,99.99
2022-10-05T07:40:24.929Z,99.99
2022-10-05T07:41:24.852Z,99.99
2022-10-05T07:42:24.771Z,99.99
2022-10-05T07:43:24.696Z,99.99
2022-10-05T07:44:24.632Z,99.99
2022-10-05T07:45:24.565Z,99.99
2022-10-05T07:46:24.516Z,99.99
2022-10-05T07:47:24.370Z,99.99
2022-10-05T07:48:24.289Z,99.99
2022-10-05T07:49:24.214Z,99.99
2022-10-05T07:50:24.128Z,99.99
2022-10-05T07:51:24.053Z,99.99
2022-10-05T07:52:23.974Z,99.99
2022-10-05T07:53:23.896Z,99.99
2022-10-05T07:54:23.812Z,99.99
2022-10-05T07:55:23.735Z,99.99
2022-10-05T07:56:23.655Z,99.99
2022-10-05T07:57:23.572Z,99.99
2022-10-05T07:58:23.495Z,99.99
2022-10-05T07:59:23.420Z,99.99
2022-10-05T08:00:23.379Z,99.99
2022-10-05T08:01:23.291Z,99.99
2022-10-05T08:02:23.306Z,99.99
2022-10-05T08:03:23.126Z,99.99
2022-10-05T08:04:23.024Z,99.99
2022-10-05T08:05:22.945Z,99.19
2022-10-05T08:06:22.867Z,98.52
2022-10-05T08:08:22.707Z,98.04
2022-10-05T08:09:22.627Z,99.15
2022-10-05T08:10:22.547Z,99.86
2022-10-05T08:11:22.467Z,97.80
2022-10-05T08:12:22.396Z,97.56
2022-10-05T08:13:22.313Z,96.32
2022-10-05T08:14:22.233Z,96.80
2022-10-05T08:15:22.154Z,96.80
2022-10-05T08:16:22.162Z,95.84
2022-10-05T08:17:25.489Z,95.46
2022-10-05T08:18:21.921Z,95.56
2022-10-05T08:19:21.841Z,97.56
2022-10-05T08:20:21.758Z,98.33
2022-10-05T08:21:21.684Z,96.61
2022-10-05T08:22:21.604Z,97.47
2022-10-05T08:23:21.528Z,97.47
2022-10-05T08:24:21.448Z,96.84
2022-10-05T08:25:21.475Z,96.13
2022-10-05T08:26:21.289Z,96.66
2022-10-05T08:27:21.212Z,94.55
2022-10-05T08:28:21.164Z,94.55
2022-10-05T08:29:21.058Z,94.65
2022-10-05T08:30:21.021Z,94.45
2022-10-05T08:31:20.966Z,94.55
2022-10-05T08:32:20.836Z,94.07
2022-10-05T08:33:20.744Z,93.50
2022-10-05T08:34:20.672Z,93.69
2022-10-05T08:35:20.590Z,93.88
2022-10-05T08:36:20.512Z,92.63
2022-10-05T08:37:20.432Z,93.50
2022-10-05T08:38:20.355Z,92.87
2022-10-05T08:39:20.276Z,93.93
2022-10-05T08:40:20.209Z,93.83
2022-10-05T08:41:20.124Z,93.07
2022-10-05T08:42:20.040Z,91.92
2022-10-05T08:43:19.964Z,91.34
2022-10-05T08:44:19.884Z,92.06
2022-10-05T08:45:19.810Z,92.25
2022-10-05T08:46:19.815Z,92.63
2022-10-05T08:47:19.657Z,92.63
2022-10-05T08:48:19.610Z,92.58
2022-10-05T08:49:19.498Z,90.23
2022-10-05T08:50:19.504Z,90.43
2022-10-05T08:51:19.342Z,89.86
2022-10-05T08:52:19.264Z,89.61
2022-10-05T08:53:19.189Z,90.19
2022-10-05T08:54:19.111Z,90.09
2022-10-05T08:55:19.033Z,90.19
2022-10-05T08:56:20.854Z,90.57
2022-10-05T08:57:18.882Z,90.19
2022-10-05T08:58:18.805Z,90.95
2022-10-05T08:59:18.724Z,89.90
2022-10-05T09:00:18.649Z,90.09
2022-10-05T09:01:18.634Z,90.38
2022-10-05T09:02:18.564Z,91.24
2022-10-05T09:03:18.414Z,91.72
2022-10-05T09:04:18.340Z,90.95
2022-10-05T09:05:18.260Z,90.19
2022-10-05T09:06:18.181Z,89.04
2022-10-05T09:07:18.111Z,89.61
2022-10-05T09:08:18.026Z,90.09
2022-10-05T09:09:17.957Z,89.13
2022-10-05T09:10:17.878Z,89.51
2022-10-05T09:11:17.801Z,90.90
2022-10-05T09:12:17.720Z,90.09
2022-10-05T09:13:17.645Z,90.52
2022-10-05T09:14:17.568Z,89.47
2022-10-05T09:15:26.227Z,88.22
2022-10-05T09:16:17.484Z,91.00
2022-10-05T09:17:17.339Z,92.15
2022-10-05T09:18:17.265Z,90.61
2022-10-05T09:19:17.185Z,90.90
2022-10-05T09:20:17.133Z,90.04
2022-10-05T09:21:17.050Z,91.28
2022-10-05T09:22:16.953Z,89.94
2022-10-05T09:23:16.876Z,90.23
2022-10-05T09:24:16.808Z,90.14
2022-10-05T09:25:16.721Z,90.23
2022-10-05T09:26:16.658Z,91.96
2022-10-05T09:27:16.567Z,90.71
2022-10-05T09:28:16.511Z,91.24
2022-10-05T09:29:16.417Z,90.85
2022-10-05T09:30:16.344Z,89.99
2022-10-05T09:31:16.349Z,89.70
2022-10-05T09:32:16.676Z,87.78
2022-10-05T09:33:16.112Z,87.98
2022-10-05T09:34:16.043Z,90.47
2022-10-05T09:35:15.954Z,90.56
2022-10-05T09:36:15.892Z,89.22
2022-10-05T09:37:15.802Z,90.28
2022-10-05T09:38:15.731Z,89.32
2022-10-05T09:39:15.655Z,88.98
2022-10-05T09:40:15.587Z,89.56
2022-10-05T09:41:15.507Z,89.75
2022-10-05T09:42:15.427Z,90.90
2022-10-05T09:43:15.350Z,90.85
2022-10-05T09:44:15.278Z,90.37
2022-10-05T09:45:20.359Z,89.79
2022-10-05T09:46:15.170Z,90.56
2022-10-05T09:47:15.041Z,88.74
2022-10-05T09:48:14.974Z,87.78
2022-10-05T09:49:14.894Z,87.68
2022-10-05T09:50:14.823Z,88.55
2022-10-05T09:51:14.745Z,88.93
2022-10-05T09:52:18.777Z,88.17
2022-10-05T09:53:14.596Z,88.02
2022-10-05T09:54:14.521Z,87.98
2022-10-05T09:55:14.442Z,87.78
2022-10-05T09:56:14.366Z,89.12
2022-10-05T09:57:14.329Z,86.92
2022-10-05T09:58:14.214Z,87.59
2022-10-05T09:59:14.132Z,87.92
2022-10-05T10:00:14.058Z,87.92
2022-10-05T10:01:32.708Z,90.13
2022-10-05T10:02:14.084Z,88.11
2022-10-05T10:03:13.925Z,89.07
2022-10-05T10:04:13.769Z,87.98
2022-10-05T10:05:13.682Z,87.49
2022-10-05T10:06:13.594Z,87.98
2022-10-05T10:07:13.520Z,89.03
2022-10-05T10:08:13.462Z,89.51
2022-10-05T10:09:13.377Z,88.84
2022-10-05T10:10:13.304Z,89.89
2022-10-05T10:11:13.216Z,90.37
2022-10-05T10:12:13.142Z,90.08
2022-10-05T10:13:13.063Z,90.47
2022-10-05T10:14:12.991Z,89.61
2022-10-05T10:15:12.912Z,88.45
2022-10-05T10:16:12.913Z,88.93
2022-10-05T10:17:12.771Z,88.98
2022-10-05T10:18:12.698Z,89.65
2022-10-05T10:19:12.626Z,90.13
2022-10-05T10:20:12.533Z,89.55
2022-10-05T10:21:12.456Z,90.32
2022-10-05T10:22:12.386Z,91.38
2022-10-05T10:23:12.301Z,90.52
2022-10-05T10:24:12.244Z,90.13
2022-10-05T10:25:12.154Z,90.80
2022-10-05T10:26:12.074Z,91.57
2022-10-05T10:27:12.001Z,89.84
2022-10-05T10:28:11.936Z,88.98
2022-10-05T10:29:11.849Z,88.59
2022-10-05T10:30:11.773Z,88.59
2022-10-05T10:31:11.745Z,90.32
2022-10-05T10:32:11.623Z,89.98
2022-10-05T10:33:11.543Z,89.40
2022-10-05T10:34:11.472Z,89.89
2022-10-05T10:35:11.393Z,89.65
2022-10-05T10:36:11.320Z,89.07
2022-10-05T10:37:11.241Z,88.11
2022-10-05T10:38:11.169Z,88.54
2022-10-05T10:39:11.091Z,87.82
2022-10-05T10:40:11.065Z,89.22
2022-10-05T10:41:10.944Z,89.75
2022-10-05T10:42:10.872Z,88.98
2022-10-05T10:43:10.803Z,88.49
2022-10-05T10:44:10.716Z,88.88
2022-10-05T10:45:10.638Z,89.55
2022-10-05T10:46:10.577Z,90.22
2022-10-05T10:47:10.485Z,90.61
2022-10-05T10:48:10.411Z,90.46
2022-10-05T10:49:10.341Z,89.65
2022-10-05T10:50:10.262Z,89.75
2022-10-05T10:51:10.188Z,89.75
2022-10-05T10:52:10.107Z,90.13
2022-10-05T10:53:10.033Z,89.79
2022-10-05T10:54:09.966Z,90.66
2022-10-05T10:55:09.881Z,89.79
2022-10-05T10:56:09.815Z,89.98
2022-10-05T10:57:09.732Z,89.45
2022-10-05T10:58:15.054Z,89.07
2022-10-05T10:59:09.579Z,88.01
2022-10-05T11:00:09.512Z,87.68
2022-10-05T11:01:09.429Z,87.39
2022-10-05T11:02:09.394Z,87.10
2022-10-05T11:03:09.329Z,86.24
2022-10-05T11:04:09.209Z,87.68
2022-10-05T11:05:09.131Z,88.35
2022-10-05T11:06:09.053Z,87.49
2022-10-05T11:07:08.979Z,87.58
2022-10-05T11:08:08.902Z,88.25
2022-10-05T11:09:08.834Z,88.16
2022-10-05T11:10:08.845Z,87.10
2022-10-05T11:11:08.705Z,87.39
2022-10-05T11:12:08.601Z,88.25
2022-10-05T11:13:08.521Z,88.16
2022-10-05T11:14:08.453Z,88.93
2022-10-05T11:15:08.383Z,89.83
2022-10-05T11:16:08.314Z,89.26
2022-10-05T11:17:08.225Z,87.15
2022-10-05T11:18:08.148Z,86.38
2022-10-05T11:19:08.069Z,86.66
2022-10-05T11:20:08.083Z,86.76
2022-10-05T11:21:07.920Z,86.57
2022-10-05T11:22:07.846Z,89.07
2022-10-05T11:23:07.767Z,87.15
2022-10-05T11:24:07.693Z,85.89
2022-10-05T11:25:07.618Z,88.59
2022-10-05T11:26:07.543Z,88.63
2022-10-05T11:27:07.466Z,88.82
2022-10-05T11:28:07.573Z,88.34
2022-10-05T11:29:07.316Z,88.82
2022-10-05T11:30:07.275Z,86.80
2022-10-05T11:31:07.211Z,86.61
2022-10-05T11:32:07.098Z,87.29
2022-10-05T11:33:07.016Z,88.24
2022-10-05T11:34:06.945Z,85.94
2022-10-05T11:35:06.863Z,84.50
2022-10-05T11:36:06.790Z,84.50
2022-10-05T11:37:06.724Z,85.11
2022-10-05T11:38:06.643Z,84.54
2022-10-05T11:39:06.570Z,84.92
2022-10-05T11:40:06.495Z,83.58
2022-10-05T11:41:06.416Z,84.16
2022-10-05T11:42:06.349Z,84.34
2022-10-05T11:43:06.274Z,83.58
2022-10-05T11:44:07.219Z,84.16
2022-10-05T11:45:06.121Z,83.39
2022-10-05T11:46:06.088Z,83.09
2022-10-05T11:47:05.963Z,83.09
2022-10-05T11:48:05.893Z,82.65
2022-10-05T11:49:05.822Z,83.19
2022-10-05T11:50:05.742Z,83.58
2022-10-05T11:51:05.674Z,86.02
2022-10-05T11:52:05.594Z,84.97
2022-10-05T11:53:05.524Z,85.25
2022-10-05T11:54:05.446Z,82.46
2022-10-05T11:55:10.943Z,82.56
2022-10-05T11:56:05.299Z,83.04
2022-10-05T11:57:05.218Z,82.94
2022-10-05T11:58:05.148Z,82.46
2022-10-05T11:59:05.072Z,82.94
2022-10-05T12:00:04.999Z,82.46
2022-10-05T12:01:04.919Z,84.67
2022-10-05T12:02:04.850Z,85.35
2022-10-05T12:03:04.914Z,85.25
2022-10-05T12:04:04.845Z,84.29
2022-10-05T12:05:04.626Z,83.42
2022-10-05T12:06:04.551Z,82.08
2022-10-05T12:07:04.475Z,82.56
2022-10-05T12:08:04.401Z,83.72
2022-10-05T12:09:04.326Z,83.14
2022-10-05T12:10:04.331Z,81.88
2022-10-05T12:11:04.179Z,83.14
2022-10-05T12:12:04.120Z,85.25
2022-10-05T12:13:04.029Z,82.94
2022-10-05T12:14:03.958Z,81.02
2022-10-05T12:15:03.877Z,81.73
2022-10-05T12:16:03.831Z,82.98
2022-10-05T12:17:03.732Z,83.47
2022-10-05T12:18:03.659Z,82.79
2022-10-05T12:19:03.582Z,82.12
2022-10-05T12:20:03.561Z,80.96
2022-10-05T12:21:03.433Z,79.90
2022-10-05T12:22:03.360Z,82.31
2022-10-05T12:23:03.292Z,83.66
2022-10-05T12:24:03.213Z,83.61
2022-10-05T12:25:03.135Z,83.31
2022-10-05T12:26:03.066Z,78.40
2022-10-05T12:27:02.994Z,78.27
2022-10-05T12:28:02.947Z,79.75
2022-10-05T12:29:02.848Z,81.83
2022-10-05T12:30:02.819Z,82.45
2022-10-05T12:31:02.743Z,83.61
2022-10-05T12:32:02.623Z,82.64
2022-10-05T12:33:02.596Z,84.28
2022-10-05T12:34:02.478Z,81.48
2022-10-05T12:35:02.401Z,80.33
2022-10-05T12:36:02.330Z,79.85
2022-10-05T12:37:04.781Z,78.88
2022-10-05T12:38:02.181Z,80.14
2022-10-05T12:39:02.099Z,82.01
2022-10-05T12:40:02.124Z,81.14
2022-10-05T12:41:01.954Z,79.89
2022-10-05T12:42:01.884Z,79.60
2022-10-05T12:43:01.803Z,79.02
2022-10-05T12:44:01.739Z,78.34
2022-10-05T12:45:01.662Z,80.71
2022-10-05T12:46:01.620Z,81.58
2022-10-05T12:47:01.506Z,81.96
2022-10-05T12:48:01.554Z,80.33
2022-10-05T12:49:01.359Z,81.29
2022-10-05T12:50:01.348Z,80.91
2022-10-05T12:51:01.223Z,81.01
2022-10-05T12:52:01.143Z,80.62